Billings, MT (59101)

5:01 PM MST on February 14, 2016 (GMT -0700)
S. Billings | | Change Station
CLOSE
Current Station
Personal Weather Station
Location: Billings, MT
Elevation: 3146 ft
Nearby Weather Stations
Active Advisory: High Wind Watch Active Notice: Local Storm Report

Elev 3146 ft 45.76 °N, 108.51 °W | Updated 7 seconds ago

Clear
Clear
51.3 °F
Feels Like 51.3 °F
N
7.4
Wind Variable Wind from WNW
Gusts 16.1 mph

Today
High -- | Low -- °F
--% Chance of Precip.
Yesterday
High -- | Low -- °F
Precip. -- in
Pressure 29.90 in
Visibility 10.0 miles
Clouds Few 7500 ft
Few 22000 ft
Dew Point 19 °F
Humidity 28%
Rainfall 0.00 in
Snow Depth Not available.
7:18 AM 5:38 PM
Waxing Crescent, 46% visible
METAR KBIL 142353Z 30021G32KT 10SM FEW075 FEW220 09/M08 A2987 RMK AO2 PK WND 31036/2254 SLP125 60000 T00941083 10117 20083 53014 $
Pressure 29.90 in
Visibility 10.0 miles
Clouds Few 7500 ft
Few 22000 ft
Dew Point 19 °F
Humidity 28%
Rainfall 0.00 in
Snow Depth Not available.
7:18 AM 5:38 PM
Waxing Crescent, 46% visible
METAR KBIL 142353Z 30021G32KT 10SM FEW075 FEW220 09/M08 A2987 RMK AO2 PK WND 31036/2254 SLP125 60000 T00941083 10117 20083 53014 $

10-Day Weather Forecast

Almanac

Astronomy

Feb. 14, 2016 Rise Set
Actual Time
Civil Twilight
Nautical Twilight
Astronomical Twilight
Moon
Length of Visible Light
Length of Day
Tomorrow will be .
, % of the Moon is Illuminated

Today's Extremes

State Highs State Lows

Community

WunderPhotos

Upload Photos

1,892,937 photos uploaded!

WunderBlog® & News

Nearby

Air Quality

  Air Quality AQ Index Pollutant
Not available.

Snow Depth

Station Depth Elevation

Earthquake Activity

City Distance Mag. Time & Date
Minimum magnitude displayed is 2.5.

Coastal Water Temperatures

Place Temperature

Stations

Nearby Weather Stations

Station Location Temp. Windchill Dew Point Humidity Wind Precip. Elev Updated Type
                   

Watches & Warnings

High Wind Watch
Issued: 2:42 PM MST Feb. 14, 2016 – National Weather Service

... High wind watch in effect from late tonight through Monday
evening...

The National Weather Service in Billings has issued a high wind
watch... which is in effect from late tonight through Monday
evening.

* Timing... west to northwest winds are expected to become very
strong on Monday. Winds will begin to decrease Monday evening.

* Impacts... travel and outdoor activities will be impacted by
strong winds. Those driving high profile vehicles should be
alert for dangerous cross winds.

* Winds... gusts of 50 to 60 mph are possible.

Precautionary/preparedness actions...

Winds of these magnitudes can cause property damage without extra
precautions. Motorists in high profile vehicles should use
caution until the winds subside.



Http://weather.Gov/Billings